Airfield :
LOGIN :

Register | Disclaimer

   EN    FR    IT 

 










Legend :    VFR   Marginal VFR   IFR   Intensive IFR   Very Intensive IFR
Visi :
Ceiling :
>= 8 km
>= 3000ft
5 to 8 km
1000 to 3000 ft
1500m to 5 km
500 to 1000 ft
800 to 1500m
200 to 500 ft
< 800m
< 200 ft
Symbols :   Thunderstorms  Fog  Heavy snow  Heavy precipitations  Wind > 20 kt
SIGMETs :     Misc.  Thunderstorms  Icing  Turbulence  Mountain Waves  Volcanic Ashes







- Airport Elevation : 13 ft
- IATA code : CEQ
- Download approach charts


LFMD - Cannes Mandelieu

CURRENT METAR :
  • 200130Z AUTO 01005KT 330V040 CAVOK 09/05 Q1014

EXPIRED METARs :
  • 200100Z AUTO 35003KT 310V040 CAVOK 09/05 Q1014
  • 200030Z AUTO 01005KT 330V040 CAVOK 10/06 Q1014
  • 200000Z AUTO 01004KT 340V060 CAVOK 10/06 Q1014
  • 192330Z AUTO VRB02KT CAVOK 10/06 Q1014

TAF AMD TAF LFMD
Valid from the 19 at 15:00 until the 20 at 15:00 UTC


191459Z 1915/2015 14006KT 9999 FEW050 BKN150
PROB40
TEMPO 1915/1917 VRB10G20KT 4000 TSRA FEW040CB SCT050
BECMG 1918/1920 36006KT CAVOK
BECMG 2008/2010 16005KT
ATIS : +33 4 93 48 73 23
No reported NOTAMs for that airfield.



MET'MAP, your aeronautical weather chart ! - Copyright ORBIFLY December 2007 - Disclaimer

ORBIFLY MET'MAP TEAM :

Programming & Development : Alexandra Zaïnal
Concept & Development : Baudouin d'Aumeries
Co-Development & Prog : Marc-Olivier Méhu
Technical & hardware support : Manuel Goepfert

Contact : metmap@orbifly.com




SOURCES & CREDITS :

   NOAA